sensor_id;sensor_type;location;lat;lon;timestamp;temperature;humidity
68922;DHT22;55959;51.244;5.724;2022-08-01T00:00:37;24.00;63.70
68922;DHT22;55959;51.244;5.724;2022-08-01T00:03:03;24.00;63.80
68922;DHT22;55959;51.244;5.724;2022-08-01T00:05:29;24.00;63.80
68922;DHT22;55959;51.244;5.724;2022-08-01T00:07:55;24.00;63.90
68922;DHT22;55959;51.244;5.724;2022-08-01T00:10:21;24.00;63.90
68922;DHT22;55959;51.244;5.724;2022-08-01T00:12:47;24.00;63.90
68922;DHT22;55959;51.244;5.724;2022-08-01T00:15:15;23.90;63.90
68922;DHT22;55959;51.244;5.724;2022-08-01T00:17:42;23.90;63.90
68922;DHT22;55959;51.244;5.724;2022-08-01T00:20:10;23.90;63.90
68922;DHT22;55959;51.244;5.724;2022-08-01T00:22:37;24.00;64.00
68922;DHT22;55959;51.244;5.724;2022-08-01T00:25:04;23.90;63.90
68922;DHT22;55959;51.244;5.724;2022-08-01T00:27:31;23.90;64.10
68922;DHT22;55959;51.244;5.724;2022-08-01T00:29:57;23.90;64.10
68922;DHT22;55959;51.244;5.724;2022-08-01T00:32:23;23.90;64.10
68922;DHT22;55959;51.244;5.724;2022-08-01T00:34:49;23.90;64.20
68922;DHT22;55959;51.244;5.724;2022-08-01T00:37:15;23.90;64.30
68922;DHT22;55959;51.244;5.724;2022-08-01T00:39:41;23.90;64.30
68922;DHT22;55959;51.244;5.724;2022-08-01T00:42:12;23.90;64.40
68922;DHT22;55959;51.244;5.724;2022-08-01T00:44:38;23.90;64.50
68922;DHT22;55959;51.244;5.724;2022-08-01T00:47:05;23.80;64.50
68922;DHT22;55959;51.244;5.724;2022-08-01T00:49:31;23.80;64.60
68922;DHT22;55959;51.244;5.724;2022-08-01T00:51:58;23.80;64.60
68922;DHT22;55959;51.244;5.724;2022-08-01T00:54:25;23.80;64.70
68922;DHT22;55959;51.244;5.724;2022-08-01T00:56:53;23.80;64.70
68922;DHT22;55959;51.244;5.724;2022-08-01T00:59:21;23.80;64.80
68922;DHT22;55959;51.244;5.724;2022-08-01T01:01:47;23.80;64.90
68922;DHT22;55959;51.244;5.724;2022-08-01T01:04:13;23.80;64.90
68922;DHT22;55959;51.244;5.724;2022-08-01T01:07:09;23.80;64.90
68922;DHT22;55959;51.244;5.724;2022-08-01T01:12:31;23.70;65.00
68922;DHT22;55959;51.244;5.724;2022-08-01T01:15:25;23.70;65.10
68922;DHT22;55959;51.244;5.724;2022-08-01T01:18:02;23.70;65.20
68922;DHT22;55959;51.244;5.724;2022-08-01T01:20:45;23.70;65.30
68922;DHT22;55959;51.244;5.724;2022-08-01T01:23:34;23.70;65.30
68922;DHT22;55959;51.244;5.724;2022-08-01T01:34:45;23.70;65.40
68922;DHT22;55959;51.244;5.724;2022-08-01T01:37:19;23.70;65.50
68922;DHT22;55959;51.244;5.724;2022-08-01T01:39:49;23.70;65.60
68922;DHT22;55959;51.244;5.724;2022-08-01T01:42:17;23.70;65.60
68922;DHT22;55959;51.244;5.724;2022-08-01T01:44:44;23.70;65.70
68922;DHT22;55959;51.244;5.724;2022-08-01T01:47:12;23.70;65.70
68922;DHT22;55959;51.244;5.724;2022-08-01T01:49:40;23.70;65.70
68922;DHT22;55959;51.244;5.724;2022-08-01T01:52:06;23.70;65.80
68922;DHT22;55959;51.244;5.724;2022-08-01T01:54:40;23.70;65.80
68922;DHT22;55959;51.244;5.724;2022-08-01T01:57:09;23.70;65.90
68922;DHT22;55959;51.244;5.724;2022-08-01T01:59:38;23.70;65.80
68922;DHT22;55959;51.244;5.724;2022-08-01T02:02:05;23.70;65.80
68922;DHT22;55959;51.244;5.724;2022-08-01T02:04:32;23.70;65.80
68922;DHT22;55959;51.244;5.724;2022-08-01T02:07:02;23.70;65.80
68922;DHT22;55959;51.244;5.724;2022-08-01T02:09:29;23.70;65.90
68922;DHT22;55959;51.244;5.724;2022-08-01T02:11:57;23.70;65.90
68922;DHT22;55959;51.244;5.724;2022-08-01T02:14:24;23.70;65.90
68922;DHT22;55959;51.244;5.724;2022-08-01T02:16:53;23.70;65.90
68922;DHT22;55959;51.244;5.724;2022-08-01T02:19:20;23.70;65.90
68922;DHT22;55959;51.244;5.724;2022-08-01T02:21:51;23.70;65.90
68922;DHT22;55959;51.244;5.724;2022-08-01T02:24:38;23.70;65.90
68922;DHT22;55959;51.244;5.724;2022-08-01T02:27:10;23.70;65.90
68922;DHT22;55959;51.244;5.724;2022-08-01T02:29:42;23.70;65.90
68922;DHT22;55959;51.244;5.724;2022-08-01T02:32:31;23.70;65.90
68922;DHT22;55959;51.244;5.724;2022-08-01T02:35:02;23.70;65.90
68922;DHT22;55959;51.244;5.724;2022-08-01T02:37:34;23.70;65.90
68922;DHT22;55959;51.244;5.724;2022-08-01T02:40:02;23.70;66.00
68922;DHT22;55959;51.244;5.724;2022-08-01T02:42:30;23.70;66.00
68922;DHT22;55959;51.244;5.724;2022-08-01T02:44:57;23.70;66.00
68922;DHT22;55959;51.244;5.724;2022-08-01T02:47:27;23.70;66.00
68922;DHT22;55959;51.244;5.724;2022-08-01T02:49:55;23.70;66.10
68922;DHT22;55959;51.244;5.724;2022-08-01T02:52:23;23.70;66.10
68922;DHT22;55959;51.244;5.724;2022-08-01T02:54:53;23.70;66.10
68922;DHT22;55959;51.244;5.724;2022-08-01T02:57:21;23.70;66.10
68922;DHT22;55959;51.244;5.724;2022-08-01T02:59:49;23.70;66.10
68922;DHT22;55959;51.244;5.724;2022-08-01T03:02:17;23.70;66.10
68922;DHT22;55959;51.244;5.724;2022-08-01T03:04:43;23.70;66.20
68922;DHT22;55959;51.244;5.724;2022-08-01T03:07:11;23.70;66.20
68922;DHT22;55959;51.244;5.724;2022-08-01T03:09:40;23.70;66.30
68922;DHT22;55959;51.244;5.724;2022-08-01T03:12:12;23.70;66.30
68922;DHT22;55959;51.244;5.724;2022-08-01T03:14:42;23.70;66.30
68922;DHT22;55959;51.244;5.724;2022-08-01T03:17:10;23.70;66.30
68922;DHT22;55959;51.244;5.724;2022-08-01T03:19:38;23.70;66.30
68922;DHT22;55959;51.244;5.724;2022-08-01T03:22:10;23.70;66.30
68922;DHT22;55959;51.244;5.724;2022-08-01T03:24:38;23.70;66.30
68922;DHT22;55959;51.244;5.724;2022-08-01T03:27:06;23.70;66.30
68922;DHT22;55959;51.244;5.724;2022-08-01T03:29:33;23.70;66.40
68922;DHT22;55959;51.244;5.724;2022-08-01T03:32:00;23.70;66.50
68922;DHT22;55959;51.244;5.724;2022-08-01T03:34:28;23.70;66.40
68922;DHT22;55959;51.244;5.724;2022-08-01T03:37:07;23.70;66.50
68922;DHT22;55959;51.244;5.724;2022-08-01T03:40:30;23.70;66.50
68922;DHT22;55959;51.244;5.724;2022-08-01T03:43:10;23.70;66.60
68922;DHT22;55959;51.244;5.724;2022-08-01T03:45:41;23.70;66.70
68922;DHT22;55959;51.244;5.724;2022-08-01T03:48:18;23.60;66.80
68922;DHT22;55959;51.244;5.724;2022-08-01T03:50:50;23.70;66.90
68922;DHT22;55959;51.244;5.724;2022-08-01T03:53:22;23.70;66.90
68922;DHT22;55959;51.244;5.724;2022-08-01T03:55:50;23.70;66.90
68922;DHT22;55959;51.244;5.724;2022-08-01T03:58:16;23.60;66.90
68922;DHT22;55959;51.244;5.724;2022-08-01T04:00:43;23.60;67.10
68922;DHT22;55959;51.244;5.724;2022-08-01T04:03:10;23.60;67.00
68922;DHT22;55959;51.244;5.724;2022-08-01T04:05:36;23.60;67.10
68922;DHT22;55959;51.244;5.724;2022-08-01T04:08:02;23.60;67.10
68922;DHT22;55959;51.244;5.724;2022-08-01T04:10:29;23.60;67.10
68922;DHT22;55959;51.244;5.724;2022-08-01T04:12:55;23.60;67.10
68922;DHT22;55959;51.244;5.724;2022-08-01T04:15:21;23.60;67.20
68922;DHT22;55959;51.244;5.724;2022-08-01T04:17:47;23.60;67.30
68922;DHT22;55959;51.244;5.724;2022-08-01T04:20:13;23.60;67.20
68922;DHT22;55959;51.244;5.724;2022-08-01T04:22:41;23.60;67.20
68922;DHT22;55959;51.244;5.724;2022-08-01T04:25:26;23.60;67.30
68922;DHT22;55959;51.244;5.724;2022-08-01T04:27:54;23.60;67.30
68922;DHT22;55959;51.244;5.724;2022-08-01T04:30:25;23.60;67.30
68922;DHT22;55959;51.244;5.724;2022-08-01T04:32:55;23.60;67.30
68922;DHT22;55959;51.244;5.724;2022-08-01T04:35:24;23.60;67.30
68922;DHT22;55959;51.244;5.724;2022-08-01T04:37:50;23.60;67.30
68922;DHT22;55959;51.244;5.724;2022-08-01T04:40:17;23.60;67.30
68922;DHT22;55959;51.244;5.724;2022-08-01T04:42:43;23.50;67.30
68922;DHT22;55959;51.244;5.724;2022-08-01T04:45:09;23.60;67.40
68922;DHT22;55959;51.244;5.724;2022-08-01T04:47:36;23.60;67.50
68922;DHT22;55959;51.244;5.724;2022-08-01T04:50:06;23.50;67.50
68922;DHT22;55959;51.244;5.724;2022-08-01T04:52:34;23.60;67.60
68922;DHT22;55959;51.244;5.724;2022-08-01T04:55:00;23.50;67.50
68922;DHT22;55959;51.244;5.724;2022-08-01T04:57:27;23.50;67.70
68922;DHT22;55959;51.244;5.724;2022-08-01T04:59:53;23.50;67.70
68922;DHT22;55959;51.244;5.724;2022-08-01T05:02:22;23.50;67.90
68922;DHT22;55959;51.244;5.724;2022-08-01T05:04:48;23.50;68.00
68922;DHT22;55959;51.244;5.724;2022-08-01T05:07:14;23.50;68.10
68922;DHT22;55959;51.244;5.724;2022-08-01T05:09:41;23.50;68.20
68922;DHT22;55959;51.244;5.724;2022-08-01T05:12:08;23.50;68.30
68922;DHT22;55959;51.244;5.724;2022-08-01T05:14:35;23.50;68.30
68922;DHT22;55959;51.244;5.724;2022-08-01T05:17:05;23.50;68.40
68922;DHT22;55959;51.244;5.724;2022-08-01T05:19:33;23.50;68.30
68922;DHT22;55959;51.244;5.724;2022-08-01T05:22:06;23.50;68.40
68922;DHT22;55959;51.244;5.724;2022-08-01T05:24:37;23.50;68.30
68922;DHT22;55959;51.244;5.724;2022-08-01T05:27:04;23.50;68.30
68922;DHT22;55959;51.244;5.724;2022-08-01T05:29:31;23.50;68.30
68922;DHT22;55959;51.244;5.724;2022-08-01T05:31:57;23.50;68.10
68922;DHT22;55959;51.244;5.724;2022-08-01T05:34:25;23.50;68.10
68922;DHT22;55959;51.244;5.724;2022-08-01T05:36:51;23.50;68.10
68922;DHT22;55959;51.244;5.724;2022-08-01T05:39:17;23.50;68.10
68922;DHT22;55959;51.244;5.724;2022-08-01T05:41:43;23.50;68.00
68922;DHT22;55959;51.244;5.724;2022-08-01T05:44:09;23.60;68.00
68922;DHT22;55959;51.244;5.724;2022-08-01T05:46:35;23.50;67.90
68922;DHT22;55959;51.244;5.724;2022-08-01T05:49:02;23.60;68.90
68922;DHT22;55959;51.244;5.724;2022-08-01T05:51:29;23.60;68.00
68922;DHT22;55959;51.244;5.724;2022-08-01T05:53:55;23.60;68.90
68922;DHT22;55959;51.244;5.724;2022-08-01T05:56:21;23.60;68.00
68922;DHT22;55959;51.244;5.724;2022-08-01T05:58:48;23.60;67.90
68922;DHT22;55959;51.244;5.724;2022-08-01T06:01:15;23.60;67.90
68922;DHT22;55959;51.244;5.724;2022-08-01T06:03:41;23.60;67.90
68922;DHT22;55959;51.244;5.724;2022-08-01T06:06:07;23.60;67.80
68922;DHT22;55959;51.244;5.724;2022-08-01T06:08:33;23.70;67.90
68922;DHT22;55959;51.244;5.724;2022-08-01T06:10:59;23.70;67.90
68922;DHT22;55959;51.244;5.724;2022-08-01T06:13:25;23.70;67.90
68922;DHT22;55959;51.244;5.724;2022-08-01T06:15:51;23.70;67.80
68922;DHT22;55959;51.244;5.724;2022-08-01T06:18:17;23.70;67.70
68922;DHT22;55959;51.244;5.724;2022-08-01T06:20:43;23.70;68.60
68922;DHT22;55959;51.244;5.724;2022-08-01T06:23:09;23.70;67.70
68922;DHT22;55959;51.244;5.724;2022-08-01T06:25:35;23.70;67.70
68922;DHT22;55959;51.244;5.724;2022-08-01T06:28:01;23.70;67.80
68922;DHT22;55959;51.244;5.724;2022-08-01T06:30:27;23.80;67.90
68922;DHT22;55959;51.244;5.724;2022-08-01T06:32:53;23.70;67.80
68922;DHT22;55959;51.244;5.724;2022-08-01T06:35:21;23.80;67.70
68922;DHT22;55959;51.244;5.724;2022-08-01T06:37:47;23.80;67.60
68922;DHT22;55959;51.244;5.724;2022-08-01T06:40:14;23.80;67.40
68922;DHT22;55959;51.244;5.724;2022-08-01T06:42:40;23.80;67.30
68922;DHT22;55959;51.244;5.724;2022-08-01T06:45:08;23.80;67.30
68922;DHT22;55959;51.244;5.724;2022-08-01T06:47:35;23.90;68.10
68922;DHT22;55959;51.244;5.724;2022-08-01T06:50:06;23.80;67.10
68922;DHT22;55959;51.244;5.724;2022-08-01T06:52:34;23.90;67.10
68922;DHT22;55959;51.244;5.724;2022-08-01T06:55:00;23.90;67.00
68922;DHT22;55959;51.244;5.724;2022-08-01T06:57:26;23.90;66.90
68922;DHT22;55959;51.244;5.724;2022-08-01T06:59:52;23.90;67.10
68922;DHT22;55959;51.244;5.724;2022-08-01T07:02:18;23.90;67.10
68922;DHT22;55959;51.244;5.724;2022-08-01T07:04:44;23.90;67.20
68922;DHT22;55959;51.244;5.724;2022-08-01T07:07:10;24.00;67.10
68922;DHT22;55959;51.244;5.724;2022-08-01T07:09:35;24.00;67.10
68922;DHT22;55959;51.244;5.724;2022-08-01T07:12:02;24.00;66.90
68922;DHT22;55959;51.244;5.724;2022-08-01T07:14:29;24.10;67.00
68922;DHT22;55959;51.244;5.724;2022-08-01T07:16:55;24.10;66.90
68922;DHT22;55959;51.244;5.724;2022-08-01T07:19:20;24.10;66.80
68922;DHT22;55959;51.244;5.724;2022-08-01T07:21:46;24.10;66.50
68922;DHT22;55959;51.244;5.724;2022-08-01T07:24:13;24.20;66.40
68922;DHT22;55959;51.244;5.724;2022-08-01T07:26:45;24.20;66.40
68922;DHT22;55959;51.244;5.724;2022-08-01T07:29:12;24.30;66.30
68922;DHT22;55959;51.244;5.724;2022-08-01T07:31:38;24.30;66.10
68922;DHT22;55959;51.244;5.724;2022-08-01T07:34:04;24.30;66.90
68922;DHT22;55959;51.244;5.724;2022-08-01T07:36:30;24.30;65.70
68922;DHT22;55959;51.244;5.724;2022-08-01T07:38:56;24.40;65.70
68922;DHT22;55959;51.244;5.724;2022-08-01T07:41:22;24.40;65.50
68922;DHT22;55959;51.244;5.724;2022-08-01T07:43:48;24.50;65.70
68922;DHT22;55959;51.244;5.724;2022-08-01T07:46:14;24.60;65.70
68922;DHT22;55959;51.244;5.724;2022-08-01T07:48:41;24.60;65.50
68922;DHT22;55959;51.244;5.724;2022-08-01T07:51:07;24.70;65.50
68922;DHT22;55959;51.244;5.724;2022-08-01T07:53:33;24.70;65.30
68922;DHT22;55959;51.244;5.724;2022-08-01T07:55:59;24.70;65.10
68922;DHT22;55959;51.244;5.724;2022-08-01T07:58:27;24.80;64.90
68922;DHT22;55959;51.244;5.724;2022-08-01T08:00:53;24.90;64.70
68922;DHT22;55959;51.244;5.724;2022-08-01T08:03:19;24.90;64.50
68922;DHT22;55959;51.244;5.724;2022-08-01T08:05:45;25.00;64.20
68922;DHT22;55959;51.244;5.724;2022-08-01T08:08:10;25.00;64.00
68922;DHT22;55959;51.244;5.724;2022-08-01T08:10:37;25.00;63.90
68922;DHT22;55959;51.244;5.724;2022-08-01T08:13:02;25.10;63.90
68922;DHT22;55959;51.244;5.724;2022-08-01T08:15:28;25.20;63.70
68922;DHT22;55959;51.244;5.724;2022-08-01T08:17:54;25.20;63.30
68922;DHT22;55959;51.244;5.724;2022-08-01T08:20:20;25.30;63.10
68922;DHT22;55959;51.244;5.724;2022-08-01T08:22:55;25.30;63.50
68922;DHT22;55959;51.244;5.724;2022-08-01T08:25:21;25.30;62.90
68922;DHT22;55959;51.244;5.724;2022-08-01T08:27:47;25.40;62.60
68922;DHT22;55959;51.244;5.724;2022-08-01T08:30:14;25.40;62.40
68922;DHT22;55959;51.244;5.724;2022-08-01T08:32:40;25.50;62.20
68922;DHT22;55959;51.244;5.724;2022-08-01T08:35:06;25.50;62.00
68922;DHT22;55959;51.244;5.724;2022-08-01T08:37:34;25.50;61.90
68922;DHT22;55959;51.244;5.724;2022-08-01T08:40:02;25.60;61.80
68922;DHT22;55959;51.244;5.724;2022-08-01T08:42:28;25.60;61.70
68922;DHT22;55959;51.244;5.724;2022-08-01T08:44:54;25.60;61.30
68922;DHT22;55959;51.244;5.724;2022-08-01T08:47:21;25.60;61.20
68922;DHT22;55959;51.244;5.724;2022-08-01T08:49:53;25.70;61.30
68922;DHT22;55959;51.244;5.724;2022-08-01T08:52:21;25.70;62.20
68922;DHT22;55959;51.244;5.724;2022-08-01T08:54:49;25.70;61.10
68922;DHT22;55959;51.244;5.724;2022-08-01T08:57:16;25.80;61.20
68922;DHT22;55959;51.244;5.724;2022-08-01T08:59:44;25.80;61.00
68922;DHT22;55959;51.244;5.724;2022-08-01T09:02:10;25.90;60.80
68922;DHT22;55959;51.244;5.724;2022-08-01T09:04:37;26.00;60.60
68922;DHT22;55959;51.244;5.724;2022-08-01T09:07:04;26.00;60.10
68922;DHT22;55959;51.244;5.724;2022-08-01T09:09:31;26.10;59.80
68922;DHT22;55959;51.244;5.724;2022-08-01T09:11:58;26.10;59.50
68922;DHT22;55959;51.244;5.724;2022-08-01T09:14:25;26.20;59.40
68922;DHT22;55959;51.244;5.724;2022-08-01T09:19:47;26.20;59.30
68922;DHT22;55959;51.244;5.724;2022-08-01T09:22:16;26.30;59.40
68922;DHT22;55959;51.244;5.724;2022-08-01T09:27:33;26.40;59.10
68922;DHT22;55959;51.244;5.724;2022-08-01T09:30:13;26.40;58.90
68922;DHT22;55959;51.244;5.724;2022-08-01T09:33:00;26.40;59.00
68922;DHT22;55959;51.244;5.724;2022-08-01T09:35:28;26.50;58.60
68922;DHT22;55959;51.244;5.724;2022-08-01T09:38:21;26.50;58.50
68922;DHT22;55959;51.244;5.724;2022-08-01T09:40:52;26.60;58.50
68922;DHT22;55959;51.244;5.724;2022-08-01T09:43:18;26.60;58.30
68922;DHT22;55959;51.244;5.724;2022-08-01T09:45:45;26.60;58.00
68922;DHT22;55959;51.244;5.724;2022-08-01T09:48:11;26.70;57.90
68922;DHT22;55959;51.244;5.724;2022-08-01T09:50:45;26.70;57.80
68922;DHT22;55959;51.244;5.724;2022-08-01T09:53:12;26.80;57.70
68922;DHT22;55959;51.244;5.724;2022-08-01T09:55:40;26.80;57.30
68922;DHT22;55959;51.244;5.724;2022-08-01T09:58:07;26.80;55.50
68922;DHT22;55959;51.244;5.724;2022-08-01T10:00:34;26.80;55.60
68922;DHT22;55959;51.244;5.724;2022-08-01T10:03:22;26.90;56.50
68922;DHT22;55959;51.244;5.724;2022-08-01T10:05:49;26.90;55.30
68922;DHT22;55959;51.244;5.724;2022-08-01T10:08:16;26.90;55.00
68922;DHT22;55959;51.244;5.724;2022-08-01T10:11:10;27.00;54.70
68922;DHT22;55959;51.244;5.724;2022-08-01T10:13:37;27.00;54.90
68922;DHT22;55959;51.244;5.724;2022-08-01T10:16:04;27.10;55.00
68922;DHT22;55959;51.244;5.724;2022-08-01T10:18:32;27.10;55.10
68922;DHT22;55959;51.244;5.724;2022-08-01T10:21:02;27.20;55.10
68922;DHT22;55959;51.244;5.724;2022-08-01T10:23:33;27.20;54.80
68922;DHT22;55959;51.244;5.724;2022-08-01T10:26:01;27.30;54.90
68922;DHT22;55959;51.244;5.724;2022-08-01T10:28:30;27.40;55.10
68922;DHT22;55959;51.244;5.724;2022-08-01T10:30:59;27.40;54.40
68922;DHT22;55959;51.244;5.724;2022-08-01T10:33:25;27.50;54.10
68922;DHT22;55959;51.244;5.724;2022-08-01T10:35:51;27.60;54.10
68922;DHT22;55959;51.244;5.724;2022-08-01T10:38:17;27.60;53.60
68922;DHT22;55959;51.244;5.724;2022-08-01T10:40:44;27.70;53.40
68922;DHT22;55959;51.244;5.724;2022-08-01T10:43:11;27.80;53.70
68922;DHT22;55959;51.244;5.724;2022-08-01T10:45:38;27.80;53.60
68922;DHT22;55959;51.244;5.724;2022-08-01T10:48:32;27.90;53.20
68922;DHT22;55959;51.244;5.724;2022-08-01T10:51:04;27.90;53.10
68922;DHT22;55959;51.244;5.724;2022-08-01T10:53:30;28.00;52.80
68922;DHT22;55959;51.244;5.724;2022-08-01T11:01:19;28.10;50.70
68922;DHT22;55959;51.244;5.724;2022-08-01T11:12:12;28.20;50.40
68922;DHT22;55959;51.244;5.724;2022-08-01T11:20:15;28.30;50.00
68922;DHT22;55959;51.244;5.724;2022-08-01T11:31:24;28.50;48.70
68922;DHT22;55959;51.244;5.724;2022-08-01T11:38:48;28.60;48.90
68922;DHT22;55959;51.244;5.724;2022-08-01T11:41:36;28.70;48.80
68922;DHT22;55959;51.244;5.724;2022-08-01T11:44:13;28.80;48.60
68922;DHT22;55959;51.244;5.724;2022-08-01T11:57:29;29.00;47.30
68922;DHT22;55959;51.244;5.724;2022-08-01T11:59:57;29.10;47.30
68922;DHT22;55959;51.244;5.724;2022-08-01T12:02:29;29.10;47.40
68922;DHT22;55959;51.244;5.724;2022-08-01T12:07:28;29.20;47.20
68922;DHT22;55959;51.244;5.724;2022-08-01T12:10:16;29.20;46.80
68922;DHT22;55959;51.244;5.724;2022-08-01T12:15:19;29.30;46.80
68922;DHT22;55959;51.244;5.724;2022-08-01T12:18:03;29.30;46.60
68922;DHT22;55959;51.244;5.724;2022-08-01T12:20:33;29.30;46.50
68922;DHT22;55959;51.244;5.724;2022-08-01T12:23:09;29.30;46.60
68922;DHT22;55959;51.244;5.724;2022-08-01T12:25:39;29.30;47.00
68922;DHT22;55959;51.244;5.724;2022-08-01T12:28:07;29.30;47.40
68922;DHT22;55959;51.244;5.724;2022-08-01T12:30:35;29.20;47.70
68922;DHT22;55959;51.244;5.724;2022-08-01T12:33:06;29.20;48.20
68922;DHT22;55959;51.244;5.724;2022-08-01T12:35:34;29.20;48.70
68922;DHT22;55959;51.244;5.724;2022-08-01T12:38:07;29.30;48.80
68922;DHT22;55959;51.244;5.724;2022-08-01T12:40:41;29.30;49.00
68922;DHT22;55959;51.244;5.724;2022-08-01T12:43:09;29.20;49.00
68922;DHT22;55959;51.244;5.724;2022-08-01T12:45:42;29.20;49.10
68922;DHT22;55959;51.244;5.724;2022-08-01T12:48:10;29.30;49.40
68922;DHT22;55959;51.244;5.724;2022-08-01T12:50:38;29.30;49.50
68922;DHT22;55959;51.244;5.724;2022-08-01T12:53:05;29.30;49.50
68922;DHT22;55959;51.244;5.724;2022-08-01T12:55:31;29.30;49.50
68922;DHT22;55959;51.244;5.724;2022-08-01T12:58:12;29.30;49.40
68922;DHT22;55959;51.244;5.724;2022-08-01T13:00:39;29.30;49.50
68922;DHT22;55959;51.244;5.724;2022-08-01T13:03:09;29.30;49.40
68922;DHT22;55959;51.244;5.724;2022-08-01T13:05:53;29.30;49.40
68922;DHT22;55959;51.244;5.724;2022-08-01T13:08:24;29.40;49.00
68922;DHT22;55959;51.244;5.724;2022-08-01T13:11:10;29.40;49.30
68922;DHT22;55959;51.244;5.724;2022-08-01T13:13:42;29.40;49.20
68922;DHT22;55959;51.244;5.724;2022-08-01T13:16:09;29.40;49.10
68922;DHT22;55959;51.244;5.724;2022-08-01T13:18:36;29.50;49.10
68922;DHT22;55959;51.244;5.724;2022-08-01T13:21:12;29.40;48.80
68922;DHT22;55959;51.244;5.724;2022-08-01T13:23:41;29.50;48.80
68922;DHT22;55959;51.244;5.724;2022-08-01T13:26:49;29.50;48.30
68922;DHT22;55959;51.244;5.724;2022-08-01T13:29:20;29.60;48.20
68922;DHT22;55959;51.244;5.724;2022-08-01T13:31:48;29.60;48.00
68922;DHT22;55959;51.244;5.724;2022-08-01T13:34:15;29.60;48.10
68922;DHT22;55959;51.244;5.724;2022-08-01T13:36:41;29.50;48.00
68922;DHT22;55959;51.244;5.724;2022-08-01T13:39:07;29.60;48.30
68922;DHT22;55959;51.244;5.724;2022-08-01T13:41:51;29.60;48.10
68922;DHT22;55959;51.244;5.724;2022-08-01T13:44:17;29.60;47.60
68922;DHT22;55959;51.244;5.724;2022-08-01T13:46:45;29.60;47.30
68922;DHT22;55959;51.244;5.724;2022-08-01T13:49:12;29.60;47.40
68922;DHT22;55959;51.244;5.724;2022-08-01T13:51:39;29.60;47.40
68922;DHT22;55959;51.244;5.724;2022-08-01T13:54:05;29.60;47.30
68922;DHT22;55959;51.244;5.724;2022-08-01T13:56:32;29.60;47.20
68922;DHT22;55959;51.244;5.724;2022-08-01T13:58:58;29.70;47.00
68922;DHT22;55959;51.244;5.724;2022-08-01T14:01:24;29.70;46.50
68922;DHT22;55959;51.244;5.724;2022-08-01T14:03:50;29.60;46.70
68922;DHT22;55959;51.244;5.724;2022-08-01T14:06:17;29.60;46.70
68922;DHT22;55959;51.244;5.724;2022-08-01T14:08:44;29.60;47.10
68922;DHT22;55959;51.244;5.724;2022-08-01T14:11:10;29.70;46.70
68922;DHT22;55959;51.244;5.724;2022-08-01T14:13:36;29.70;46.80
68922;DHT22;55959;51.244;5.724;2022-08-01T14:16:04;29.70;46.70
68922;DHT22;55959;51.244;5.724;2022-08-01T14:18:31;29.70;46.60
68922;DHT22;55959;51.244;5.724;2022-08-01T14:20:56;29.70;46.70
68922;DHT22;55959;51.244;5.724;2022-08-01T14:23:22;29.70;46.60
68922;DHT22;55959;51.244;5.724;2022-08-01T14:25:48;29.70;46.60
68922;DHT22;55959;51.244;5.724;2022-08-01T14:28:14;29.80;46.40
68922;DHT22;55959;51.244;5.724;2022-08-01T14:30:40;29.80;45.90
68922;DHT22;55959;51.244;5.724;2022-08-01T14:33:08;29.80;45.80
68922;DHT22;55959;51.244;5.724;2022-08-01T14:35:34;29.80;46.00
68922;DHT22;55959;51.244;5.724;2022-08-01T14:38:00;29.80;45.90
68922;DHT22;55959;51.244;5.724;2022-08-01T14:40:26;29.80;45.60
68922;DHT22;55959;51.244;5.724;2022-08-01T14:42:52;29.90;44.70
68922;DHT22;55959;51.244;5.724;2022-08-01T14:45:17;29.90;44.80
68922;DHT22;55959;51.244;5.724;2022-08-01T14:47:43;29.90;44.90
68922;DHT22;55959;51.244;5.724;2022-08-01T14:50:13;30.00;44.80
68922;DHT22;55959;51.244;5.724;2022-08-01T14:52:40;30.10;44.80
68922;DHT22;55959;51.244;5.724;2022-08-01T14:55:08;30.10;44.60
68922;DHT22;55959;51.244;5.724;2022-08-01T14:57:35;30.00;44.10
68922;DHT22;55959;51.244;5.724;2022-08-01T15:00:03;30.10;44.10
68922;DHT22;55959;51.244;5.724;2022-08-01T15:02:30;30.10;43.50
68922;DHT22;55959;51.244;5.724;2022-08-01T15:04:56;30.10;44.00
68922;DHT22;55959;51.244;5.724;2022-08-01T15:07:21;30.00;44.40
68922;DHT22;55959;51.244;5.724;2022-08-01T15:09:47;30.10;44.30
68922;DHT22;55959;51.244;5.724;2022-08-01T15:12:13;30.00;44.10
68922;DHT22;55959;51.244;5.724;2022-08-01T15:14:39;30.10;44.20
68922;DHT22;55959;51.244;5.724;2022-08-01T15:17:28;30.10;44.20
68922;DHT22;55959;51.244;5.724;2022-08-01T15:19:57;30.10;43.90
68922;DHT22;55959;51.244;5.724;2022-08-01T15:22:24;30.00;43.90
68922;DHT22;55959;51.244;5.724;2022-08-01T15:24:52;30.00;44.00
68922;DHT22;55959;51.244;5.724;2022-08-01T15:27:18;30.00;43.90
68922;DHT22;55959;51.244;5.724;2022-08-01T15:29:45;30.00;44.00
68922;DHT22;55959;51.244;5.724;2022-08-01T15:32:11;30.00;43.70
68922;DHT22;55959;51.244;5.724;2022-08-01T15:34:37;30.10;43.40
68922;DHT22;55959;51.244;5.724;2022-08-01T15:37:04;30.00;43.50
68922;DHT22;55959;51.244;5.724;2022-08-01T15:39:32;30.10;43.50
68922;DHT22;55959;51.244;5.724;2022-08-01T15:42:08;30.00;43.10
68922;DHT22;55959;51.244;5.724;2022-08-01T15:44:35;30.00;42.80
68922;DHT22;55959;51.244;5.724;2022-08-01T15:47:01;30.00;43.00
68922;DHT22;55959;51.244;5.724;2022-08-01T15:49:28;30.00;42.70
68922;DHT22;55959;51.244;5.724;2022-08-01T15:51:55;29.90;42.50
68922;DHT22;55959;51.244;5.724;2022-08-01T15:54:21;29.90;42.70
68922;DHT22;55959;51.244;5.724;2022-08-01T15:56:47;29.90;43.00
68922;DHT22;55959;51.244;5.724;2022-08-01T15:59:13;29.90;42.90
68922;DHT22;55959;51.244;5.724;2022-08-01T16:01:39;29.90;42.80
68922;DHT22;55959;51.244;5.724;2022-08-01T16:04:07;30.00;42.80
68922;DHT22;55959;51.244;5.724;2022-08-01T16:06:34;30.00;42.60
68922;DHT22;55959;51.244;5.724;2022-08-01T16:09:00;30.00;42.60
68922;DHT22;55959;51.244;5.724;2022-08-01T16:11:26;30.00;42.30
68922;DHT22;55959;51.244;5.724;2022-08-01T16:13:55;30.10;42.30
68922;DHT22;55959;51.244;5.724;2022-08-01T16:16:21;30.10;42.30
68922;DHT22;55959;51.244;5.724;2022-08-01T16:18:48;30.10;42.00
68922;DHT22;55959;51.244;5.724;2022-08-01T16:21:14;30.10;42.10
68922;DHT22;55959;51.244;5.724;2022-08-01T16:23:41;30.10;42.10
68922;DHT22;55959;51.244;5.724;2022-08-01T16:26:08;30.20;42.60
68922;DHT22;55959;51.244;5.724;2022-08-01T16:28:33;30.20;41.70
68922;DHT22;55959;51.244;5.724;2022-08-01T16:31:00;30.20;41.80
68922;DHT22;55959;51.244;5.724;2022-08-01T16:33:26;30.20;41.70
68922;DHT22;55959;51.244;5.724;2022-08-01T16:35:52;30.30;41.70
68922;DHT22;55959;51.244;5.724;2022-08-01T16:38:18;30.30;41.30
68922;DHT22;55959;51.244;5.724;2022-08-01T16:40:46;30.30;41.40
68922;DHT22;55959;51.244;5.724;2022-08-01T16:43:13;30.30;41.10
68922;DHT22;55959;51.244;5.724;2022-08-01T16:45:39;30.40;41.20